sensor_id;sensor_type;location;lat;lon;timestamp;P1;durP1;ratioP1;P2;durP2;ratioP2
40515;SDS011;26216;53.724;9.898;2023-02-11T00:00:30;22.52;;;13.45;;
40515;SDS011;26216;53.724;9.898;2023-02-11T00:02:56;19.77;;;11.70;;
40515;SDS011;26216;53.724;9.898;2023-02-11T00:05:22;22.20;;;14.70;;
40515;SDS011;26216;53.724;9.898;2023-02-11T00:07:48;24.73;;;13.27;;
40515;SDS011;26216;53.724;9.898;2023-02-11T00:10:13;20.02;;;12.80;;
40515;SDS011;26216;53.724;9.898;2023-02-11T00:12:39;24.00;;;13.07;;
40515;SDS011;26216;53.724;9.898;2023-02-11T00:15:07;23.52;;;13.27;;
40515;SDS011;26216;53.724;9.898;2023-02-11T00:17:34;21.55;;;12.73;;
40515;SDS011;26216;53.724;9.898;2023-02-11T00:20:00;27.42;;;16.38;;
40515;SDS011;26216;53.724;9.898;2023-02-11T00:22:26;22.20;;;13.40;;
40515;SDS011;26216;53.724;9.898;2023-02-11T00:24:52;26.98;;;14.30;;
40515;SDS011;26216;53.724;9.898;2023-02-11T00:27:18;22.23;;;11.80;;
40515;SDS011;26216;53.724;9.898;2023-02-11T00:29:44;22.55;;;12.00;;
40515;SDS011;26216;53.724;9.898;2023-02-11T00:32:09;15.88;;;10.95;;
40515;SDS011;26216;53.724;9.898;2023-02-11T00:34:36;16.50;;;11.15;;
40515;SDS011;26216;53.724;9.898;2023-02-11T00:37:02;18.65;;;11.15;;
40515;SDS011;26216;53.724;9.898;2023-02-11T00:39:29;20.05;;;11.98;;
40515;SDS011;26216;53.724;9.898;2023-02-11T00:41:55;19.50;;;11.45;;
40515;SDS011;26216;53.724;9.898;2023-02-11T00:44:21;20.00;;;12.50;;
40515;SDS011;26216;53.724;9.898;2023-02-11T00:46:47;25.42;;;13.15;;
40515;SDS011;26216;53.724;9.898;2023-02-11T00:49:13;14.25;;;10.52;;
40515;SDS011;26216;53.724;9.898;2023-02-11T00:51:38;23.50;;;13.55;;
40515;SDS011;26216;53.724;9.898;2023-02-11T00:54:04;17.92;;;11.20;;
40515;SDS011;26216;53.724;9.898;2023-02-11T00:56:30;19.95;;;10.48;;
40515;SDS011;26216;53.724;9.898;2023-02-11T00:58:57;19.75;;;11.13;;
40515;SDS011;26216;53.724;9.898;2023-02-11T01:01:23;17.40;;;10.52;;
40515;SDS011;26216;53.724;9.898;2023-02-11T01:03:49;15.25;;;10.10;;
40515;SDS011;26216;53.724;9.898;2023-02-11T01:06:15;21.35;;;10.95;;
40515;SDS011;26216;53.724;9.898;2023-02-11T01:08:41;16.45;;;10.20;;
40515;SDS011;26216;53.724;9.898;2023-02-11T01:11:10;19.17;;;11.20;;
40515;SDS011;26216;53.724;9.898;2023-02-11T01:13:41;21.60;;;11.70;;
40515;SDS011;26216;53.724;9.898;2023-02-11T01:16:08;19.30;;;11.25;;
40515;SDS011;26216;53.724;9.898;2023-02-11T01:18:35;17.08;;;10.70;;
40515;SDS011;26216;53.724;9.898;2023-02-11T01:21:02;18.58;;;11.00;;
40515;SDS011;26216;53.724;9.898;2023-02-11T01:23:27;15.38;;;10.50;;
40515;SDS011;26216;53.724;9.898;2023-02-11T01:25:53;19.35;;;10.57;;
40515;SDS011;26216;53.724;9.898;2023-02-11T01:28:21;16.83;;;10.57;;
40515;SDS011;26216;53.724;9.898;2023-02-11T01:30:48;19.70;;;10.60;;
40515;SDS011;26216;53.724;9.898;2023-02-11T01:33:15;15.68;;;8.80;;
40515;SDS011;26216;53.724;9.898;2023-02-11T01:35:41;20.23;;;11.48;;
40515;SDS011;26216;53.724;9.898;2023-02-11T01:38:12;22.33;;;12.10;;
40515;SDS011;26216;53.724;9.898;2023-02-11T01:40:51;18.60;;;10.63;;
40515;SDS011;26216;53.724;9.898;2023-02-11T01:43:22;18.30;;;11.05;;
40515;SDS011;26216;53.724;9.898;2023-02-11T01:45:54;22.65;;;13.48;;
40515;SDS011;26216;53.724;9.898;2023-02-11T01:51:00;20.95;;;11.60;;
40515;SDS011;26216;53.724;9.898;2023-02-11T01:53:47;18.80;;;11.63;;
40515;SDS011;26216;53.724;9.898;2023-02-11T01:56:33;16.75;;;11.45;;
40515;SDS011;26216;53.724;9.898;2023-02-11T01:59:31;24.30;;;12.82;;
40515;SDS011;26216;53.724;9.898;2023-02-11T02:02:04;22.15;;;12.65;;
40515;SDS011;26216;53.724;9.898;2023-02-11T02:04:34;22.75;;;12.73;;
40515;SDS011;26216;53.724;9.898;2023-02-11T02:07:11;24.17;;;12.27;;
40515;SDS011;26216;53.724;9.898;2023-02-11T02:09:44;19.23;;;11.98;;
40515;SDS011;26216;53.724;9.898;2023-02-11T02:12:14;21.05;;;11.82;;
40515;SDS011;26216;53.724;9.898;2023-02-11T02:14:40;22.80;;;14.32;;
40515;SDS011;26216;53.724;9.898;2023-02-11T02:17:08;18.38;;;11.05;;
40515;SDS011;26216;53.724;9.898;2023-02-11T02:20:02;17.38;;;11.85;;
40515;SDS011;26216;53.724;9.898;2023-02-11T02:22:45;21.75;;;13.15;;
40515;SDS011;26216;53.724;9.898;2023-02-11T02:28:32;24.45;;;13.32;;
40515;SDS011;26216;53.724;9.898;2023-02-11T02:36:57;16.98;;;10.30;;
40515;SDS011;26216;53.724;9.898;2023-02-11T02:39:30;16.08;;;9.80;;
40515;SDS011;26216;53.724;9.898;2023-02-11T02:41:59;23.13;;;13.27;;
40515;SDS011;26216;53.724;9.898;2023-02-11T02:44:26;21.90;;;11.82;;
40515;SDS011;26216;53.724;9.898;2023-02-11T02:46:53;20.67;;;11.98;;
40515;SDS011;26216;53.724;9.898;2023-02-11T02:49:18;26.08;;;13.30;;
40515;SDS011;26216;53.724;9.898;2023-02-11T03:02:32;20.83;;;11.75;;
40515;SDS011;26216;53.724;9.898;2023-02-11T03:05:20;19.08;;;11.02;;
40515;SDS011;26216;53.724;9.898;2023-02-11T03:10:51;19.00;;;11.35;;
40515;SDS011;26216;53.724;9.898;2023-02-11T03:13:18;20.42;;;12.02;;
40515;SDS011;26216;53.724;9.898;2023-02-11T03:15:49;17.33;;;10.63;;
40515;SDS011;26216;53.724;9.898;2023-02-11T03:18:21;16.90;;;9.75;;
40515;SDS011;26216;53.724;9.898;2023-02-11T03:20:50;20.15;;;11.13;;
40515;SDS011;26216;53.724;9.898;2023-02-11T03:23:20;15.82;;;9.98;;
40515;SDS011;26216;53.724;9.898;2023-02-11T03:25:49;15.00;;;10.40;;
40515;SDS011;26216;53.724;9.898;2023-02-11T03:28:26;18.77;;;11.18;;
40515;SDS011;26216;53.724;9.898;2023-02-11T03:33:29;19.00;;;12.02;;
40515;SDS011;26216;53.724;9.898;2023-02-11T03:36:03;16.63;;;10.32;;
40515;SDS011;26216;53.724;9.898;2023-02-11T03:38:38;18.42;;;11.63;;
40515;SDS011;26216;53.724;9.898;2023-02-11T03:41:10;20.83;;;11.27;;
40515;SDS011;26216;53.724;9.898;2023-02-11T03:43:43;18.80;;;10.95;;
40515;SDS011;26216;53.724;9.898;2023-02-11T03:46:14;17.15;;;10.40;;
40515;SDS011;26216;53.724;9.898;2023-02-11T03:48:44;24.73;;;12.40;;
40515;SDS011;26216;53.724;9.898;2023-02-11T03:51:13;21.83;;;10.88;;
40515;SDS011;26216;53.724;9.898;2023-02-11T03:53:42;23.30;;;12.60;;
40515;SDS011;26216;53.724;9.898;2023-02-11T03:56:12;29.40;;;12.25;;
40515;SDS011;26216;53.724;9.898;2023-02-11T03:58:44;26.45;;;13.38;;
40515;SDS011;26216;53.724;9.898;2023-02-11T04:01:11;26.83;;;12.70;;
40515;SDS011;26216;53.724;9.898;2023-02-11T04:03:38;27.08;;;13.07;;
40515;SDS011;26216;53.724;9.898;2023-02-11T04:06:04;21.63;;;11.95;;
40515;SDS011;26216;53.724;9.898;2023-02-11T04:08:30;21.83;;;11.63;;
40515;SDS011;26216;53.724;9.898;2023-02-11T04:10:57;18.85;;;11.10;;
40515;SDS011;26216;53.724;9.898;2023-02-11T04:13:23;30.17;;;13.52;;
40515;SDS011;26216;53.724;9.898;2023-02-11T04:15:50;27.17;;;12.07;;
40515;SDS011;26216;53.724;9.898;2023-02-11T04:18:16;20.67;;;12.32;;
40515;SDS011;26216;53.724;9.898;2023-02-11T04:20:42;24.05;;;13.75;;
40515;SDS011;26216;53.724;9.898;2023-02-11T04:23:07;26.10;;;12.73;;
40515;SDS011;26216;53.724;9.898;2023-02-11T04:25:34;22.83;;;12.65;;
40515;SDS011;26216;53.724;9.898;2023-02-11T04:28:00;24.50;;;12.73;;
40515;SDS011;26216;53.724;9.898;2023-02-11T04:30:26;18.33;;;10.45;;
40515;SDS011;26216;53.724;9.898;2023-02-11T04:32:52;22.65;;;10.32;;
40515;SDS011;26216;53.724;9.898;2023-02-11T04:35:18;28.40;;;12.63;;
40515;SDS011;26216;53.724;9.898;2023-02-11T04:37:44;18.67;;;10.20;;
40515;SDS011;26216;53.724;9.898;2023-02-11T04:40:10;16.80;;;9.68;;
40515;SDS011;26216;53.724;9.898;2023-02-11T04:42:36;21.67;;;11.23;;
40515;SDS011;26216;53.724;9.898;2023-02-11T04:45:02;20.08;;;11.48;;
40515;SDS011;26216;53.724;9.898;2023-02-11T04:47:28;19.92;;;10.25;;
40515;SDS011;26216;53.724;9.898;2023-02-11T04:49:54;24.00;;;11.23;;
40515;SDS011;26216;53.724;9.898;2023-02-11T04:52:20;23.02;;;11.80;;
40515;SDS011;26216;53.724;9.898;2023-02-11T04:54:46;23.98;;;10.85;;
40515;SDS011;26216;53.724;9.898;2023-02-11T04:57:11;25.27;;;12.10;;
40515;SDS011;26216;53.724;9.898;2023-02-11T04:59:37;22.58;;;11.60;;
40515;SDS011;26216;53.724;9.898;2023-02-11T05:02:04;18.25;;;11.00;;
40515;SDS011;26216;53.724;9.898;2023-02-11T05:04:30;17.15;;;9.50;;
40515;SDS011;26216;53.724;9.898;2023-02-11T05:06:56;17.25;;;10.73;;
40515;SDS011;26216;53.724;9.898;2023-02-11T05:09:22;22.75;;;10.95;;
40515;SDS011;26216;53.724;9.898;2023-02-11T05:11:48;28.63;;;13.77;;
40515;SDS011;26216;53.724;9.898;2023-02-11T05:14:14;19.65;;;10.90;;
40515;SDS011;26216;53.724;9.898;2023-02-11T05:16:40;22.38;;;12.02;;
40515;SDS011;26216;53.724;9.898;2023-02-11T05:19:05;20.65;;;11.35;;
40515;SDS011;26216;53.724;9.898;2023-02-11T05:21:31;17.38;;;9.68;;
40515;SDS011;26216;53.724;9.898;2023-02-11T05:23:57;17.15;;;9.48;;
40515;SDS011;26216;53.724;9.898;2023-02-11T05:26:23;18.92;;;9.90;;
40515;SDS011;26216;53.724;9.898;2023-02-11T05:28:49;19.02;;;11.00;;
40515;SDS011;26216;53.724;9.898;2023-02-11T05:31:15;17.23;;;9.73;;
40515;SDS011;26216;53.724;9.898;2023-02-11T05:33:41;16.73;;;11.10;;
40515;SDS011;26216;53.724;9.898;2023-02-11T05:36:08;18.17;;;9.82;;
40515;SDS011;26216;53.724;9.898;2023-02-11T05:38:37;16.88;;;8.95;;
40515;SDS011;26216;53.724;9.898;2023-02-11T05:41:03;16.42;;;8.32;;
40515;SDS011;26216;53.724;9.898;2023-02-11T05:43:33;15.93;;;9.05;;
40515;SDS011;26216;53.724;9.898;2023-02-11T05:45:59;13.68;;;8.60;;
40515;SDS011;26216;53.724;9.898;2023-02-11T05:48:25;12.90;;;8.57;;
40515;SDS011;26216;53.724;9.898;2023-02-11T05:50:51;12.43;;;7.70;;
40515;SDS011;26216;53.724;9.898;2023-02-11T05:53:17;14.25;;;7.35;;
40515;SDS011;26216;53.724;9.898;2023-02-11T05:55:43;10.75;;;7.50;;
40515;SDS011;26216;53.724;9.898;2023-02-11T05:58:08;16.67;;;9.63;;
40515;SDS011;26216;53.724;9.898;2023-02-11T06:00:35;13.75;;;7.95;;
40515;SDS011;26216;53.724;9.898;2023-02-11T06:03:01;11.88;;;7.35;;
40515;SDS011;26216;53.724;9.898;2023-02-11T06:05:28;17.00;;;10.07;;
40515;SDS011;26216;53.724;9.898;2023-02-11T06:07:54;14.52;;;9.32;;
40515;SDS011;26216;53.724;9.898;2023-02-11T06:10:20;11.73;;;7.85;;
40515;SDS011;26216;53.724;9.898;2023-02-11T06:12:46;11.65;;;7.82;;
40515;SDS011;26216;53.724;9.898;2023-02-11T06:15:12;17.58;;;10.23;;
40515;SDS011;26216;53.724;9.898;2023-02-11T06:17:38;13.57;;;9.20;;
40515;SDS011;26216;53.724;9.898;2023-02-11T06:20:04;18.85;;;10.48;;
40515;SDS011;26216;53.724;9.898;2023-02-11T06:22:32;15.07;;;10.07;;
40515;SDS011;26216;53.724;9.898;2023-02-11T06:24:58;17.08;;;9.07;;
40515;SDS011;26216;53.724;9.898;2023-02-11T06:27:24;12.38;;;8.73;;
40515;SDS011;26216;53.724;9.898;2023-02-11T06:29:50;15.98;;;9.60;;
40515;SDS011;26216;53.724;9.898;2023-02-11T06:32:16;16.00;;;9.90;;
40515;SDS011;26216;53.724;9.898;2023-02-11T06:34:42;15.15;;;10.25;;
40515;SDS011;26216;53.724;9.898;2023-02-11T06:37:09;15.82;;;9.80;;
40515;SDS011;26216;53.724;9.898;2023-02-11T06:39:35;13.10;;;7.80;;
40515;SDS011;26216;53.724;9.898;2023-02-11T06:42:01;17.73;;;10.27;;
40515;SDS011;26216;53.724;9.898;2023-02-11T06:44:27;14.27;;;8.73;;
40515;SDS011;26216;53.724;9.898;2023-02-11T06:46:52;14.68;;;9.15;;
40515;SDS011;26216;53.724;9.898;2023-02-11T06:49:18;13.00;;;8.52;;
40515;SDS011;26216;53.724;9.898;2023-02-11T06:51:44;17.02;;;10.77;;
40515;SDS011;26216;53.724;9.898;2023-02-11T06:54:10;16.30;;;9.63;;
40515;SDS011;26216;53.724;9.898;2023-02-11T06:56:38;14.27;;;9.77;;
40515;SDS011;26216;53.724;9.898;2023-02-11T06:59:05;14.50;;;9.00;;
40515;SDS011;26216;53.724;9.898;2023-02-11T07:01:31;16.25;;;10.20;;
40515;SDS011;26216;53.724;9.898;2023-02-11T07:03:57;15.15;;;8.88;;
40515;SDS011;26216;53.724;9.898;2023-02-11T07:06:24;16.13;;;9.23;;
40515;SDS011;26216;53.724;9.898;2023-02-11T07:08:52;12.30;;;8.20;;
40515;SDS011;26216;53.724;9.898;2023-02-11T07:11:22;12.50;;;8.20;;
40515;SDS011;26216;53.724;9.898;2023-02-11T07:13:50;19.65;;;11.05;;
40515;SDS011;26216;53.724;9.898;2023-02-11T07:16:18;14.27;;;9.13;;
40515;SDS011;26216;53.724;9.898;2023-02-11T07:18:44;14.93;;;10.35;;
40515;SDS011;26216;53.724;9.898;2023-02-11T07:21:11;19.95;;;10.30;;
40515;SDS011;26216;53.724;9.898;2023-02-11T07:23:38;18.35;;;10.90;;
40515;SDS011;26216;53.724;9.898;2023-02-11T07:26:06;12.27;;;8.35;;
40515;SDS011;26216;53.724;9.898;2023-02-11T07:28:33;12.98;;;8.57;;
40515;SDS011;26216;53.724;9.898;2023-02-11T07:33:33;16.73;;;10.50;;
40515;SDS011;26216;53.724;9.898;2023-02-11T07:36:00;13.90;;;8.93;;
40515;SDS011;26216;53.724;9.898;2023-02-11T07:38:26;12.88;;;9.27;;
40515;SDS011;26216;53.724;9.898;2023-02-11T07:40:52;15.05;;;9.35;;
40515;SDS011;26216;53.724;9.898;2023-02-11T07:43:18;14.00;;;8.85;;
40515;SDS011;26216;53.724;9.898;2023-02-11T07:45:44;18.77;;;11.35;;
40515;SDS011;26216;53.724;9.898;2023-02-11T07:48:10;20.38;;;11.63;;
40515;SDS011;26216;53.724;9.898;2023-02-11T07:50:36;14.90;;;8.95;;
40515;SDS011;26216;53.724;9.898;2023-02-11T07:53:01;13.68;;;9.90;;
40515;SDS011;26216;53.724;9.898;2023-02-11T07:55:27;18.98;;;10.65;;
40515;SDS011;26216;53.724;9.898;2023-02-11T07:57:53;18.13;;;10.40;;
40515;SDS011;26216;53.724;9.898;2023-02-11T08:00:19;18.23;;;11.20;;
40515;SDS011;26216;53.724;9.898;2023-02-11T08:02:47;17.95;;;11.40;;
40515;SDS011;26216;53.724;9.898;2023-02-11T08:05:13;20.55;;;12.23;;
40515;SDS011;26216;53.724;9.898;2023-02-11T08:07:39;18.02;;;9.88;;
40515;SDS011;26216;53.724;9.898;2023-02-11T08:10:05;16.70;;;10.70;;
40515;SDS011;26216;53.724;9.898;2023-02-11T08:12:31;18.52;;;11.18;;
40515;SDS011;26216;53.724;9.898;2023-02-11T08:14:57;18.20;;;10.73;;
40515;SDS011;26216;53.724;9.898;2023-02-11T08:17:23;16.90;;;9.10;;
40515;SDS011;26216;53.724;9.898;2023-02-11T08:19:49;16.13;;;10.52;;
40515;SDS011;26216;53.724;9.898;2023-02-11T08:22:14;17.63;;;9.70;;
40515;SDS011;26216;53.724;9.898;2023-02-11T08:24:40;19.80;;;10.57;;
40515;SDS011;26216;53.724;9.898;2023-02-11T08:27:07;17.90;;;11.40;;
40515;SDS011;26216;53.724;9.898;2023-02-11T08:29:33;19.25;;;10.63;;
40515;SDS011;26216;53.724;9.898;2023-02-11T08:31:59;14.77;;;9.93;;
40515;SDS011;26216;53.724;9.898;2023-02-11T08:34:24;20.25;;;9.75;;
40515;SDS011;26216;53.724;9.898;2023-02-11T08:36:50;20.75;;;10.98;;
40515;SDS011;26216;53.724;9.898;2023-02-11T08:39:20;16.50;;;9.95;;
40515;SDS011;26216;53.724;9.898;2023-02-11T08:41:47;16.60;;;10.75;;
40515;SDS011;26216;53.724;9.898;2023-02-11T08:44:18;18.08;;;9.55;;
40515;SDS011;26216;53.724;9.898;2023-02-11T08:46:45;21.42;;;10.50;;
40515;SDS011;26216;53.724;9.898;2023-02-11T08:49:12;16.80;;;10.05;;
40515;SDS011;26216;53.724;9.898;2023-02-11T08:51:38;12.30;;;8.50;;
40515;SDS011;26216;53.724;9.898;2023-02-11T08:54:05;17.00;;;9.05;;
40515;SDS011;26216;53.724;9.898;2023-02-11T08:56:33;19.50;;;9.70;;
40515;SDS011;26216;53.724;9.898;2023-02-11T08:59:00;16.02;;;9.32;;
40515;SDS011;26216;53.724;9.898;2023-02-11T09:01:27;15.43;;;8.63;;
40515;SDS011;26216;53.724;9.898;2023-02-11T09:03:54;19.33;;;9.82;;
40515;SDS011;26216;53.724;9.898;2023-02-11T09:06:21;17.85;;;9.02;;
40515;SDS011;26216;53.724;9.898;2023-02-11T09:08:49;14.18;;;8.07;;
40515;SDS011;26216;53.724;9.898;2023-02-11T09:11:17;16.63;;;8.93;;
40515;SDS011;26216;53.724;9.898;2023-02-11T09:13:45;18.23;;;9.15;;
40515;SDS011;26216;53.724;9.898;2023-02-11T09:16:15;17.48;;;8.70;;
40515;SDS011;26216;53.724;9.898;2023-02-11T09:18:46;12.85;;;7.05;;
40515;SDS011;26216;53.724;9.898;2023-02-11T09:21:12;18.20;;;9.93;;
40515;SDS011;26216;53.724;9.898;2023-02-11T09:23:40;16.75;;;8.45;;
40515;SDS011;26216;53.724;9.898;2023-02-11T09:28:43;16.35;;;8.85;;
40515;SDS011;26216;53.724;9.898;2023-02-11T09:31:10;20.98;;;7.20;;
40515;SDS011;26216;53.724;9.898;2023-02-11T09:33:40;19.73;;;8.90;;
40515;SDS011;26216;53.724;9.898;2023-02-11T09:36:12;14.20;;;7.13;;
40515;SDS011;26216;53.724;9.898;2023-02-11T09:38:39;18.75;;;7.75;;
40515;SDS011;26216;53.724;9.898;2023-02-11T09:41:11;19.58;;;7.75;;
40515;SDS011;26216;53.724;9.898;2023-02-11T09:43:53;16.98;;;8.13;;
40515;SDS011;26216;53.724;9.898;2023-02-11T09:46:23;16.23;;;7.15;;
40515;SDS011;26216;53.724;9.898;2023-02-11T09:48:52;17.83;;;6.97;;
40515;SDS011;26216;53.724;9.898;2023-02-11T09:56:55;16.48;;;7.22;;
40515;SDS011;26216;53.724;9.898;2023-02-11T09:59:21;23.33;;;8.32;;
40515;SDS011;26216;53.724;9.898;2023-02-11T10:01:49;27.63;;;8.02;;
40515;SDS011;26216;53.724;9.898;2023-02-11T10:06:49;20.38;;;7.43;;
40515;SDS011;26216;53.724;9.898;2023-02-11T10:09:28;24.17;;;7.28;;
40515;SDS011;26216;53.724;9.898;2023-02-11T10:14:47;17.48;;;6.20;;
40515;SDS011;26216;53.724;9.898;2023-02-11T10:23:09;20.27;;;5.82;;
40515;SDS011;26216;53.724;9.898;2023-02-11T10:25:42;14.77;;;5.93;;
40515;SDS011;26216;53.724;9.898;2023-02-11T10:28:16;23.67;;;6.65;;
40515;SDS011;26216;53.724;9.898;2023-02-11T10:30:48;15.98;;;5.03;;
40515;SDS011;26216;53.724;9.898;2023-02-11T10:33:25;15.82;;;4.80;;
40515;SDS011;26216;53.724;9.898;2023-02-11T10:35:54;17.80;;;5.05;;
40515;SDS011;26216;53.724;9.898;2023-02-11T10:38:20;12.43;;;4.18;;
40515;SDS011;26216;53.724;9.898;2023-02-11T10:40:45;10.25;;;4.78;;
40515;SDS011;26216;53.724;9.898;2023-02-11T10:43:13;12.95;;;4.53;;
40515;SDS011;26216;53.724;9.898;2023-02-11T10:45:43;13.95;;;4.88;;
40515;SDS011;26216;53.724;9.898;2023-02-11T10:53:40;17.52;;;5.00;;
40515;SDS011;26216;53.724;9.898;2023-02-11T10:56:07;17.38;;;4.32;;
40515;SDS011;26216;53.724;9.898;2023-02-11T10:58:40;13.35;;;4.10;;
40515;SDS011;26216;53.724;9.898;2023-02-11T11:01:10;15.82;;;5.13;;
40515;SDS011;26216;53.724;9.898;2023-02-11T11:03:54;17.77;;;5.13;;
40515;SDS011;26216;53.724;9.898;2023-02-11T11:06:30;13.25;;;4.13;;
40515;SDS011;26216;53.724;9.898;2023-02-11T11:08:57;13.45;;;4.20;;
40515;SDS011;26216;53.724;9.898;2023-02-11T11:11:24;16.73;;;4.93;;
40515;SDS011;26216;53.724;9.898;2023-02-11T11:16:25;16.77;;;4.38;;
40515;SDS011;26216;53.724;9.898;2023-02-11T11:19:13;17.33;;;4.68;;
40515;SDS011;26216;53.724;9.898;2023-02-11T11:21:45;21.80;;;4.88;;
40515;SDS011;26216;53.724;9.898;2023-02-11T11:24:16;15.50;;;5.15;;
40515;SDS011;26216;53.724;9.898;2023-02-11T11:26:46;22.02;;;4.82;;
40515;SDS011;26216;53.724;9.898;2023-02-11T11:32:29;14.85;;;5.05;;
40515;SDS011;26216;53.724;9.898;2023-02-11T11:34:50;16.92;;;4.20;;
40515;SDS011;26216;53.724;9.898;2023-02-11T11:37:36;12.27;;;3.53;;
40515;SDS011;26216;53.724;9.898;2023-02-11T11:40:25;15.73;;;4.18;;
40515;SDS011;26216;53.724;9.898;2023-02-11T11:45:58;15.63;;;4.32;;
40515;SDS011;26216;53.724;9.898;2023-02-11T11:48:26;13.88;;;3.85;;
40515;SDS011;26216;53.724;9.898;2023-02-11T11:51:07;14.73;;;4.00;;
40515;SDS011;26216;53.724;9.898;2023-02-11T11:56:33;15.20;;;3.70;;
40515;SDS011;26216;53.724;9.898;2023-02-11T11:59:04;10.93;;;3.75;;
40515;SDS011;26216;53.724;9.898;2023-02-11T12:10:22;9.63;;;2.80;;
40515;SDS011;26216;53.724;9.898;2023-02-11T12:13:24;22.50;;;5.03;;
40515;SDS011;26216;53.724;9.898;2023-02-11T12:18:56;13.73;;;4.35;;
40515;SDS011;26216;53.724;9.898;2023-02-11T12:24:33;14.25;;;4.15;;
40515;SDS011;26216;53.724;9.898;2023-02-11T12:27:17;12.57;;;3.70;;
40515;SDS011;26216;53.724;9.898;2023-02-11T12:32:46;10.30;;;2.97;;
40515;SDS011;26216;53.724;9.898;2023-02-11T12:35:32;15.00;;;4.07;;
40515;SDS011;26216;53.724;9.898;2023-02-11T12:41:26;21.52;;;6.35;;
40515;SDS011;26216;53.724;9.898;2023-02-11T12:43:37;18.70;;;4.72;;
40515;SDS011;26216;53.724;9.898;2023-02-11T13:02:41;18.15;;;4.57;;
40515;SDS011;26216;53.724;9.898;2023-02-11T13:05:26;16.13;;;3.97;;
40515;SDS011;26216;53.724;9.898;2023-02-11T13:08:42;20.25;;;5.53;;
40515;SDS011;26216;53.724;9.898;2023-02-11T13:11:10;27.35;;;5.88;;
40515;SDS011;26216;53.724;9.898;2023-02-11T13:19:24;23.00;;;4.90;;
40515;SDS011;26216;53.724;9.898;2023-02-11T13:32:17;22.52;;;5.40;;
40515;SDS011;26216;53.724;9.898;2023-02-11T13:40:04;17.95;;;4.40;;
40515;SDS011;26216;53.724;9.898;2023-02-11T13:42:48;15.48;;;3.92;;
40515;SDS011;26216;53.724;9.898;2023-02-11T13:45:29;12.27;;;3.33;;
40515;SDS011;26216;53.724;9.898;2023-02-11T13:47:58;21.63;;;4.78;;
40515;SDS011;26216;53.724;9.898;2023-02-11T13:50:38;17.85;;;4.20;;
40515;SDS011;26216;53.724;9.898;2023-02-11T13:53:12;13.30;;;3.92;;
40515;SDS011;26216;53.724;9.898;2023-02-11T13:55:39;16.60;;;3.33;;
40515;SDS011;26216;53.724;9.898;2023-02-11T14:00:53;14.60;;;3.55;;
40515;SDS011;26216;53.724;9.898;2023-02-11T14:06:30;12.98;;;3.45;;
40515;SDS011;26216;53.724;9.898;2023-02-11T14:09:32;9.40;;;2.40;;
40515;SDS011;26216;53.724;9.898;2023-02-11T14:15:28;13.13;;;3.95;;
40515;SDS011;26216;53.724;9.898;2023-02-11T14:17:51;19.05;;;4.20;;
40515;SDS011;26216;53.724;9.898;2023-02-11T14:20:31;10.50;;;2.83;;
40515;SDS011;26216;53.724;9.898;2023-02-11T14:23:15;13.25;;;3.15;;
40515;SDS011;26216;53.724;9.898;2023-02-11T14:26:04;15.75;;;3.70;;
40515;SDS011;26216;53.724;9.898;2023-02-11T14:28:46;21.33;;;5.63;;
40515;SDS011;26216;53.724;9.898;2023-02-11T14:31:27;18.15;;;5.70;;
40515;SDS011;26216;53.724;9.898;2023-02-11T14:36:37;20.27;;;5.55;;
40515;SDS011;26216;53.724;9.898;2023-02-11T14:42:15;12.02;;;3.67;;
40515;SDS011;26216;53.724;9.898;2023-02-11T14:44:49;19.77;;;5.15;;
40515;SDS011;26216;53.724;9.898;2023-02-11T14:47:24;18.83;;;4.63;;
40515;SDS011;26216;53.724;9.898;2023-02-11T14:50:18;14.35;;;4.20;;
40515;SDS011;26216;53.724;9.898;2023-02-11T14:52:51;15.35;;;3.83;;
40515;SDS011;26216;53.724;9.898;2023-02-11T14:55:27;14.48;;;4.63;;
40515;SDS011;26216;53.724;9.898;2023-02-11T14:58:04;12.30;;;4.57;;
40515;SDS011;26216;53.724;9.898;2023-02-11T15:00:32;10.60;;;3.22;;
40515;SDS011;26216;53.724;9.898;2023-02-11T15:02:58;16.17;;;4.25;;
40515;SDS011;26216;53.724;9.898;2023-02-11T15:05:25;24.00;;;5.22;;
40515;SDS011;26216;53.724;9.898;2023-02-11T15:08:02;9.57;;;3.47;;
40515;SDS011;26216;53.724;9.898;2023-02-11T15:10:42;13.32;;;4.18;;
40515;SDS011;26216;53.724;9.898;2023-02-11T15:13:13;12.75;;;3.47;;
40515;SDS011;26216;53.724;9.898;2023-02-11T15:15:44;18.90;;;4.75;;
40515;SDS011;26216;53.724;9.898;2023-02-11T15:18:16;14.35;;;4.88;;
40515;SDS011;26216;53.724;9.898;2023-02-11T15:20:47;12.55;;;4.00;;
40515;SDS011;26216;53.724;9.898;2023-02-11T15:23:21;15.77;;;4.28;;
40515;SDS011;26216;53.724;9.898;2023-02-11T15:25:49;16.23;;;4.88;;
40515;SDS011;26216;53.724;9.898;2023-02-11T15:28:30;13.95;;;4.57;;
40515;SDS011;26216;53.724;9.898;2023-02-11T15:30:59;11.55;;;4.07;;
40515;SDS011;26216;53.724;9.898;2023-02-11T15:33:28;17.23;;;5.53;;
40515;SDS011;26216;53.724;9.898;2023-02-11T15:35:56;17.98;;;5.07;;
40515;SDS011;26216;53.724;9.898;2023-02-11T15:38:23;17.48;;;4.78;;
40515;SDS011;26216;53.724;9.898;2023-02-11T15:40:51;18.77;;;5.65;;
40515;SDS011;26216;53.724;9.898;2023-02-11T15:43:23;23.63;;;6.28;;
40515;SDS011;26216;53.724;9.898;2023-02-11T15:54:35;14.52;;;5.18;;
40515;SDS011;26216;53.724;9.898;2023-02-11T15:56:51;16.77;;;4.90;;
40515;SDS011;26216;53.724;9.898;2023-02-11T15:59:34;21.38;;;5.82;;
40515;SDS011;26216;53.724;9.898;2023-02-11T16:04:53;16.05;;;5.50;;
40515;SDS011;26216;53.724;9.898;2023-02-11T16:07:43;14.35;;;5.00;;
40515;SDS011;26216;53.724;9.898;2023-02-11T16:15:42;19.55;;;6.60;;
40515;SDS011;26216;53.724;9.898;2023-02-11T16:20:48;13.43;;;4.97;;
40515;SDS011;26216;53.724;9.898;2023-02-11T16:23:19;16.27;;;5.50;;
40515;SDS011;26216;53.724;9.898;2023-02-11T16:25:50;19.60;;;6.53;;
40515;SDS011;26216;53.724;9.898;2023-02-11T16:28:22;11.95;;;5.35;;
40515;SDS011;26216;53.724;9.898;2023-02-11T16:30:50;17.30;;;5.38;;
40515;SDS011;26216;53.724;9.898;2023-02-11T16:33:18;24.65;;;6.93;;
40515;SDS011;26216;53.724;9.898;2023-02-11T16:35:44;21.42;;;5.90;;
40515;SDS011;26216;53.724;9.898;2023-02-11T16:38:12;19.30;;;6.82;;
40515;SDS011;26216;53.724;9.898;2023-02-11T16:40:42;13.95;;;5.50;;
40515;SDS011;26216;53.724;9.898;2023-02-11T16:43:10;19.27;;;6.80;;
40515;SDS011;26216;53.724;9.898;2023-02-11T16:45:37;20.10;;;6.50;;
40515;SDS011;26216;53.724;9.898;2023-02-11T16:48:07;19.35;;;7.10;;
40515;SDS011;26216;53.724;9.898;2023-02-11T16:50:34;16.98;;;6.22;;
40515;SDS011;26216;53.724;9.898;2023-02-11T16:53:00;22.50;;;7.60;;
40515;SDS011;26216;53.724;9.898;2023-02-11T16:55:30;20.90;;;5.95;;
40515;SDS011;26216;53.724;9.898;2023-02-11T16:57:59;16.00;;;7.10;;
40515;SDS011;26216;53.724;9.898;2023-02-11T17:00:25;20.50;;;8.70;;
40515;SDS011;26216;53.724;9.898;2023-02-11T17:02:51;15.35;;;6.85;;
40515;SDS011;26216;53.724;9.898;2023-02-11T17:05:20;16.65;;;6.85;;
40515;SDS011;26216;53.724;9.898;2023-02-11T17:07:47;17.23;;;6.80;;
40515;SDS011;26216;53.724;9.898;2023-02-11T17:10:17;21.50;;;6.85;;
40515;SDS011;26216;53.724;9.898;2023-02-11T17:12:45;16.33;;;7.10;;
40515;SDS011;26216;53.724;9.898;2023-02-11T17:15:12;21.52;;;7.32;;
40515;SDS011;26216;53.724;9.898;2023-02-11T17:17:38;19.85;;;7.50;;
40515;SDS011;26216;53.724;9.898;2023-02-11T17:20:04;26.30;;;8.55;;
40515;SDS011;26216;53.724;9.898;2023-02-11T17:22:31;14.05;;;6.15;;